sensor_id;sensor_type;location;lat;lon;timestamp;temperature;humidity
71084;DHT22;58741;52.672;13.548;2023-08-17T00:01:55;20.00;99.90
71084;DHT22;58741;52.672;13.548;2023-08-17T00:04:21;20.00;99.90
71084;DHT22;58741;52.672;13.548;2023-08-17T00:06:47;20.00;99.90
71084;DHT22;58741;52.672;13.548;2023-08-17T00:09:12;19.90;99.90
71084;DHT22;58741;52.672;13.548;2023-08-17T00:11:38;19.90;99.90
71084;DHT22;58741;52.672;13.548;2023-08-17T00:14:05;19.80;99.90
71084;DHT22;58741;52.672;13.548;2023-08-17T00:16:31;19.80;99.90
71084;DHT22;58741;52.672;13.548;2023-08-17T00:18:56;19.80;99.90
71084;DHT22;58741;52.672;13.548;2023-08-17T00:21:22;19.80;99.90
71084;DHT22;58741;52.672;13.548;2023-08-17T00:23:48;19.80;99.90
71084;DHT22;58741;52.672;13.548;2023-08-17T00:26:14;19.70;99.90
71084;DHT22;58741;52.672;13.548;2023-08-17T00:28:40;19.70;99.90
71084;DHT22;58741;52.672;13.548;2023-08-17T00:31:06;19.70;99.90
71084;DHT22;58741;52.672;13.548;2023-08-17T00:33:31;19.60;99.90
71084;DHT22;58741;52.672;13.548;2023-08-17T00:35:57;19.60;99.90
71084;DHT22;58741;52.672;13.548;2023-08-17T00:38:25;19.60;99.90
71084;DHT22;58741;52.672;13.548;2023-08-17T00:40:50;19.50;99.90
71084;DHT22;58741;52.672;13.548;2023-08-17T00:43:16;19.50;99.90
71084;DHT22;58741;52.672;13.548;2023-08-17T00:45:42;19.50;99.90
71084;DHT22;58741;52.672;13.548;2023-08-17T00:48:09;19.50;99.90
71084;DHT22;58741;52.672;13.548;2023-08-17T00:50:36;19.50;99.90
71084;DHT22;58741;52.672;13.548;2023-08-17T00:53:03;19.40;99.90
71084;DHT22;58741;52.672;13.548;2023-08-17T00:55:28;19.40;99.90
71084;DHT22;58741;52.672;13.548;2023-08-17T00:57:56;19.30;99.90
71084;DHT22;58741;52.672;13.548;2023-08-17T01:00:22;19.30;99.90
71084;DHT22;58741;52.672;13.548;2023-08-17T01:02:49;19.30;99.90
71084;DHT22;58741;52.672;13.548;2023-08-17T01:05:16;19.30;99.90
71084;DHT22;58741;52.672;13.548;2023-08-17T01:07:41;19.30;99.90
71084;DHT22;58741;52.672;13.548;2023-08-17T01:10:08;19.20;99.90
71084;DHT22;58741;52.672;13.548;2023-08-17T01:15:19;19.20;99.90
71084;DHT22;58741;52.672;13.548;2023-08-17T01:17:56;19.20;99.90
71084;DHT22;58741;52.672;13.548;2023-08-17T01:20:24;19.20;99.90
71084;DHT22;58741;52.672;13.548;2023-08-17T01:22:52;19.10;99.90
71084;DHT22;58741;52.672;13.548;2023-08-17T01:25:22;19.10;99.90
71084;DHT22;58741;52.672;13.548;2023-08-17T01:27:48;19.10;99.90
71084;DHT22;58741;52.672;13.548;2023-08-17T01:30:17;19.00;99.90
71084;DHT22;58741;52.672;13.548;2023-08-17T01:33:08;19.10;99.90
71084;DHT22;58741;52.672;13.548;2023-08-17T01:35:39;19.00;99.90
71084;DHT22;58741;52.672;13.548;2023-08-17T01:38:11;19.00;99.90
71084;DHT22;58741;52.672;13.548;2023-08-17T01:40:37;19.00;99.90
71084;DHT22;58741;52.672;13.548;2023-08-17T01:43:04;19.00;99.90
71084;DHT22;58741;52.672;13.548;2023-08-17T01:45:30;18.90;99.90
71084;DHT22;58741;52.672;13.548;2023-08-17T01:47:56;18.90;99.90
71084;DHT22;58741;52.672;13.548;2023-08-17T01:50:21;18.90;99.90
71084;DHT22;58741;52.672;13.548;2023-08-17T01:52:49;18.90;99.90
71084;DHT22;58741;52.672;13.548;2023-08-17T01:55:20;18.90;99.90
71084;DHT22;58741;52.672;13.548;2023-08-17T01:57:46;18.90;99.90
71084;DHT22;58741;52.672;13.548;2023-08-17T02:00:12;18.80;99.90
71084;DHT22;58741;52.672;13.548;2023-08-17T02:02:41;18.80;99.90
71084;DHT22;58741;52.672;13.548;2023-08-17T02:05:07;18.80;99.90
71084;DHT22;58741;52.672;13.548;2023-08-17T02:07:33;18.70;99.90
71084;DHT22;58741;52.672;13.548;2023-08-17T02:09:58;18.70;99.90
71084;DHT22;58741;52.672;13.548;2023-08-17T02:12:25;18.70;99.90
71084;DHT22;58741;52.672;13.548;2023-08-17T02:14:50;18.70;99.90
71084;DHT22;58741;52.672;13.548;2023-08-17T02:17:16;18.70;99.90
71084;DHT22;58741;52.672;13.548;2023-08-17T02:19:42;18.60;99.90
71084;DHT22;58741;52.672;13.548;2023-08-17T02:22:10;18.60;99.90
71084;DHT22;58741;52.672;13.548;2023-08-17T02:24:36;18.60;99.90
71084;DHT22;58741;52.672;13.548;2023-08-17T02:27:02;18.60;99.90
71084;DHT22;58741;52.672;13.548;2023-08-17T02:29:28;18.60;99.90
71084;DHT22;58741;52.672;13.548;2023-08-17T02:31:53;18.50;99.90
71084;DHT22;58741;52.672;13.548;2023-08-17T02:34:19;18.50;99.90
71084;DHT22;58741;52.672;13.548;2023-08-17T02:36:44;18.50;99.90
71084;DHT22;58741;52.672;13.548;2023-08-17T02:39:10;18.50;99.90
71084;DHT22;58741;52.672;13.548;2023-08-17T02:41:36;18.40;99.90
71084;DHT22;58741;52.672;13.548;2023-08-17T02:44:02;18.40;99.90
71084;DHT22;58741;52.672;13.548;2023-08-17T02:46:28;18.40;99.90
71084;DHT22;58741;52.672;13.548;2023-08-17T02:48:53;18.40;99.90
71084;DHT22;58741;52.672;13.548;2023-08-17T02:51:19;18.40;99.90
71084;DHT22;58741;52.672;13.548;2023-08-17T02:53:44;18.30;99.90
71084;DHT22;58741;52.672;13.548;2023-08-17T02:56:10;18.30;99.90
71084;DHT22;58741;52.672;13.548;2023-08-17T02:58:38;18.30;99.90
71084;DHT22;58741;52.672;13.548;2023-08-17T03:01:10;18.20;99.90
71084;DHT22;58741;52.672;13.548;2023-08-17T03:03:35;18.20;99.90
71084;DHT22;58741;52.672;13.548;2023-08-17T03:06:02;18.20;99.90
71084;DHT22;58741;52.672;13.548;2023-08-17T03:08:28;18.20;99.90
71084;DHT22;58741;52.672;13.548;2023-08-17T03:10:53;18.10;99.90
71084;DHT22;58741;52.672;13.548;2023-08-17T03:13:19;18.10;99.90
71084;DHT22;58741;52.672;13.548;2023-08-17T03:15:45;18.10;99.90
71084;DHT22;58741;52.672;13.548;2023-08-17T03:18:10;18.00;99.90
71084;DHT22;58741;52.672;13.548;2023-08-17T03:20:37;18.10;99.90
71084;DHT22;58741;52.672;13.548;2023-08-17T03:23:03;18.00;99.90
71084;DHT22;58741;52.672;13.548;2023-08-17T03:25:33;18.00;99.90
71084;DHT22;58741;52.672;13.548;2023-08-17T03:27:59;18.00;99.90
71084;DHT22;58741;52.672;13.548;2023-08-17T03:30:26;17.90;99.90
71084;DHT22;58741;52.672;13.548;2023-08-17T03:32:51;17.90;99.90
71084;DHT22;58741;52.672;13.548;2023-08-17T03:35:17;17.90;99.90
71084;DHT22;58741;52.672;13.548;2023-08-17T03:37:42;17.90;99.90
71084;DHT22;58741;52.672;13.548;2023-08-17T03:40:10;17.90;99.90
71084;DHT22;58741;52.672;13.548;2023-08-17T03:42:35;17.80;99.90
71084;DHT22;58741;52.672;13.548;2023-08-17T03:45:02;17.80;99.90
71084;DHT22;58741;52.672;13.548;2023-08-17T03:47:28;17.80;99.90
71084;DHT22;58741;52.672;13.548;2023-08-17T03:49:54;17.80;99.90
71084;DHT22;58741;52.672;13.548;2023-08-17T03:52:19;17.80;99.90
71084;DHT22;58741;52.672;13.548;2023-08-17T03:54:47;17.80;99.90
71084;DHT22;58741;52.672;13.548;2023-08-17T03:57:12;17.80;99.90
71084;DHT22;58741;52.672;13.548;2023-08-17T03:59:38;17.80;99.90
71084;DHT22;58741;52.672;13.548;2023-08-17T04:02:03;17.80;99.90
71084;DHT22;58741;52.672;13.548;2023-08-17T04:04:29;17.80;99.90
71084;DHT22;58741;52.672;13.548;2023-08-17T04:06:56;17.70;99.90
71084;DHT22;58741;52.672;13.548;2023-08-17T04:09:22;17.70;99.90
71084;DHT22;58741;52.672;13.548;2023-08-17T04:11:47;17.70;99.90
71084;DHT22;58741;52.672;13.548;2023-08-17T04:14:13;17.70;99.90
71084;DHT22;58741;52.672;13.548;2023-08-17T04:16:39;17.70;99.90
71084;DHT22;58741;52.672;13.548;2023-08-17T04:19:05;17.70;99.90
71084;DHT22;58741;52.672;13.548;2023-08-17T04:21:31;17.70;99.90
71084;DHT22;58741;52.672;13.548;2023-08-17T04:23:57;17.70;99.90
71084;DHT22;58741;52.672;13.548;2023-08-17T04:26:22;17.80;99.90
71084;DHT22;58741;52.672;13.548;2023-08-17T04:28:49;17.70;99.90
71084;DHT22;58741;52.672;13.548;2023-08-17T04:31:15;17.70;99.90
71084;DHT22;58741;52.672;13.548;2023-08-17T04:33:43;17.70;99.90
71084;DHT22;58741;52.672;13.548;2023-08-17T04:36:09;17.80;99.90
71084;DHT22;58741;52.672;13.548;2023-08-17T04:38:34;17.80;99.90
71084;DHT22;58741;52.672;13.548;2023-08-17T04:41:00;17.70;99.90
71084;DHT22;58741;52.672;13.548;2023-08-17T04:43:25;17.80;99.90
71084;DHT22;58741;52.672;13.548;2023-08-17T04:45:52;17.80;99.90
71084;DHT22;58741;52.672;13.548;2023-08-17T04:48:18;17.80;99.90
71084;DHT22;58741;52.672;13.548;2023-08-17T04:50:45;17.80;99.90
71084;DHT22;58741;52.672;13.548;2023-08-17T04:53:10;17.80;99.90
71084;DHT22;58741;52.672;13.548;2023-08-17T04:55:36;17.80;99.90
71084;DHT22;58741;52.672;13.548;2023-08-17T04:58:02;17.90;99.90
71084;DHT22;58741;52.672;13.548;2023-08-17T05:00:27;17.90;99.90
71084;DHT22;58741;52.672;13.548;2023-08-17T05:02:55;17.90;99.90
71084;DHT22;58741;52.672;13.548;2023-08-17T05:05:21;17.90;99.90
71084;DHT22;58741;52.672;13.548;2023-08-17T05:07:47;18.00;99.90
71084;DHT22;58741;52.672;13.548;2023-08-17T05:10:13;18.00;99.90
71084;DHT22;58741;52.672;13.548;2023-08-17T05:12:40;18.10;99.90
71084;DHT22;58741;52.672;13.548;2023-08-17T05:15:06;18.10;99.90
71084;DHT22;58741;52.672;13.548;2023-08-17T05:17:32;18.10;99.90
71084;DHT22;58741;52.672;13.548;2023-08-17T05:19:57;18.10;99.90
71084;DHT22;58741;52.672;13.548;2023-08-17T05:22:23;18.20;99.90
71084;DHT22;58741;52.672;13.548;2023-08-17T05:24:49;18.10;99.90
71084;DHT22;58741;52.672;13.548;2023-08-17T05:27:15;18.20;99.90
71084;DHT22;58741;52.672;13.548;2023-08-17T05:29:40;18.30;99.90
71084;DHT22;58741;52.672;13.548;2023-08-17T05:32:06;18.30;99.90
71084;DHT22;58741;52.672;13.548;2023-08-17T05:34:32;18.30;99.90
71084;DHT22;58741;52.672;13.548;2023-08-17T05:36:58;18.40;99.90
71084;DHT22;58741;52.672;13.548;2023-08-17T05:39:24;18.40;99.90
71084;DHT22;58741;52.672;13.548;2023-08-17T05:41:49;18.40;99.90
71084;DHT22;58741;52.672;13.548;2023-08-17T05:44:15;18.50;99.90
71084;DHT22;58741;52.672;13.548;2023-08-17T05:46:41;18.60;99.90
71084;DHT22;58741;52.672;13.548;2023-08-17T05:49:07;18.60;99.90
71084;DHT22;58741;52.672;13.548;2023-08-17T05:51:32;18.70;99.90
71084;DHT22;58741;52.672;13.548;2023-08-17T05:53:58;18.70;99.90
71084;DHT22;58741;52.672;13.548;2023-08-17T05:56:24;18.80;99.90
71084;DHT22;58741;52.672;13.548;2023-08-17T05:58:49;18.80;99.90
71084;DHT22;58741;52.672;13.548;2023-08-17T06:01:15;18.90;99.90
71084;DHT22;58741;52.672;13.548;2023-08-17T06:03:40;19.00;99.90
71084;DHT22;58741;52.672;13.548;2023-08-17T06:06:06;19.00;99.90
71084;DHT22;58741;52.672;13.548;2023-08-17T06:08:32;19.10;99.90
71084;DHT22;58741;52.672;13.548;2023-08-17T06:10:58;19.20;99.90
71084;DHT22;58741;52.672;13.548;2023-08-17T06:13:23;19.20;99.90
71084;DHT22;58741;52.672;13.548;2023-08-17T06:15:49;19.30;99.90
71084;DHT22;58741;52.672;13.548;2023-08-17T06:18:15;19.40;99.90
71084;DHT22;58741;52.672;13.548;2023-08-17T06:20:41;19.40;99.90
71084;DHT22;58741;52.672;13.548;2023-08-17T06:23:06;19.50;99.90
71084;DHT22;58741;52.672;13.548;2023-08-17T06:25:32;19.60;99.90
71084;DHT22;58741;52.672;13.548;2023-08-17T06:27:58;19.70;99.90
71084;DHT22;58741;52.672;13.548;2023-08-17T06:30:23;19.80;99.90
71084;DHT22;58741;52.672;13.548;2023-08-17T06:32:50;19.90;99.90
71084;DHT22;58741;52.672;13.548;2023-08-17T06:35:17;19.90;99.90
71084;DHT22;58741;52.672;13.548;2023-08-17T06:37:42;20.00;99.90
71084;DHT22;58741;52.672;13.548;2023-08-17T06:40:08;20.10;99.90
71084;DHT22;58741;52.672;13.548;2023-08-17T06:42:36;20.20;99.90
71084;DHT22;58741;52.672;13.548;2023-08-17T06:45:03;20.20;99.90
71084;DHT22;58741;52.672;13.548;2023-08-17T06:47:29;20.20;99.90
71084;DHT22;58741;52.672;13.548;2023-08-17T06:49:55;20.30;99.90
71084;DHT22;58741;52.672;13.548;2023-08-17T06:52:23;20.40;99.90
71084;DHT22;58741;52.672;13.548;2023-08-17T06:54:48;20.40;99.90
71084;DHT22;58741;52.672;13.548;2023-08-17T06:57:14;20.60;99.90
71084;DHT22;58741;52.672;13.548;2023-08-17T06:59:40;20.80;99.90
71084;DHT22;58741;52.672;13.548;2023-08-17T07:02:06;21.00;99.90
71084;DHT22;58741;52.672;13.548;2023-08-17T07:04:31;21.30;99.90
71084;DHT22;58741;52.672;13.548;2023-08-17T07:06:57;21.50;99.90
71084;DHT22;58741;52.672;13.548;2023-08-17T07:09:22;21.80;99.90
71084;DHT22;58741;52.672;13.548;2023-08-17T07:11:49;22.00;99.90
71084;DHT22;58741;52.672;13.548;2023-08-17T07:14:15;22.20;99.90
71084;DHT22;58741;52.672;13.548;2023-08-17T07:16:40;22.40;99.50
71084;DHT22;58741;52.672;13.548;2023-08-17T07:19:06;22.50;99.20
71084;DHT22;58741;52.672;13.548;2023-08-17T07:21:31;22.50;98.70
71084;DHT22;58741;52.672;13.548;2023-08-17T07:23:57;22.50;98.90
71084;DHT22;58741;52.672;13.548;2023-08-17T07:26:23;22.60;98.60
71084;DHT22;58741;52.672;13.548;2023-08-17T07:28:49;22.60;98.40
71084;DHT22;58741;52.672;13.548;2023-08-17T07:31:15;22.70;98.40
71084;DHT22;58741;52.672;13.548;2023-08-17T07:33:40;22.70;98.20
71084;DHT22;58741;52.672;13.548;2023-08-17T07:36:06;22.70;98.40
71084;DHT22;58741;52.672;13.548;2023-08-17T07:38:31;22.70;97.50
71084;DHT22;58741;52.672;13.548;2023-08-17T07:40:58;22.80;98.40
71084;DHT22;58741;52.672;13.548;2023-08-17T07:43:24;22.90;98.60
71084;DHT22;58741;52.672;13.548;2023-08-17T07:45:56;23.00;98.40
71084;DHT22;58741;52.672;13.548;2023-08-17T07:48:22;23.20;97.80
71084;DHT22;58741;52.672;13.548;2023-08-17T07:50:49;23.30;97.90
71084;DHT22;58741;52.672;13.548;2023-08-17T07:53:15;23.50;97.70
71084;DHT22;58741;52.672;13.548;2023-08-17T07:55:41;23.60;97.40
71084;DHT22;58741;52.672;13.548;2023-08-17T07:58:06;23.70;97.60
71084;DHT22;58741;52.672;13.548;2023-08-17T08:00:32;23.70;97.60
71084;DHT22;58741;52.672;13.548;2023-08-17T08:02:57;23.80;97.10
71084;DHT22;58741;52.672;13.548;2023-08-17T08:05:23;23.90;97.20
71084;DHT22;58741;52.672;13.548;2023-08-17T08:07:48;24.00;97.10
71084;DHT22;58741;52.672;13.548;2023-08-17T08:10:14;24.00;96.50
71084;DHT22;58741;52.672;13.548;2023-08-17T08:12:40;24.00;96.50
71084;DHT22;58741;52.672;13.548;2023-08-17T08:15:05;24.00;95.90
71084;DHT22;58741;52.672;13.548;2023-08-17T08:17:31;24.00;96.20
71084;DHT22;58741;52.672;13.548;2023-08-17T08:19:57;24.10;96.00
71084;DHT22;58741;52.672;13.548;2023-08-17T08:22:24;24.10;96.10
71084;DHT22;58741;52.672;13.548;2023-08-17T08:24:50;24.10;96.30
71084;DHT22;58741;52.672;13.548;2023-08-17T08:27:16;24.20;96.50
71084;DHT22;58741;52.672;13.548;2023-08-17T08:29:41;24.20;96.10
71084;DHT22;58741;52.672;13.548;2023-08-17T08:32:07;24.20;96.20
71084;DHT22;58741;52.672;13.548;2023-08-17T08:34:33;24.30;96.00
71084;DHT22;58741;52.672;13.548;2023-08-17T08:36:58;24.30;95.90
71084;DHT22;58741;52.672;13.548;2023-08-17T08:39:27;24.40;96.00
71084;DHT22;58741;52.672;13.548;2023-08-17T08:41:53;24.40;95.80
71084;DHT22;58741;52.672;13.548;2023-08-17T08:44:19;24.50;95.90
71084;DHT22;58741;52.672;13.548;2023-08-17T08:46:45;24.70;95.50
71084;DHT22;58741;52.672;13.548;2023-08-17T08:49:11;24.80;95.40
71084;DHT22;58741;52.672;13.548;2023-08-17T08:51:44;25.00;95.50
71084;DHT22;58741;52.672;13.548;2023-08-17T08:54:13;25.10;94.70
71084;DHT22;58741;52.672;13.548;2023-08-17T08:56:42;25.20;95.00
71084;DHT22;58741;52.672;13.548;2023-08-17T08:59:09;25.40;94.70
71084;DHT22;58741;52.672;13.548;2023-08-17T09:01:36;25.50;94.30
71084;DHT22;58741;52.672;13.548;2023-08-17T09:04:02;25.70;93.70
71084;DHT22;58741;52.672;13.548;2023-08-17T09:06:29;25.70;93.70
71084;DHT22;58741;52.672;13.548;2023-08-17T09:08:57;25.70;93.60
71084;DHT22;58741;52.672;13.548;2023-08-17T09:11:23;25.70;93.40
71084;DHT22;58741;52.672;13.548;2023-08-17T09:13:49;25.70;93.30
71084;DHT22;58741;52.672;13.548;2023-08-17T09:16:15;25.70;93.80
71084;DHT22;58741;52.672;13.548;2023-08-17T09:18:40;25.70;93.70
71084;DHT22;58741;52.672;13.548;2023-08-17T09:21:07;25.70;93.50
71084;DHT22;58741;52.672;13.548;2023-08-17T09:23:32;25.70;93.50
71084;DHT22;58741;52.672;13.548;2023-08-17T09:26:08;25.70;93.40
71084;DHT22;58741;52.672;13.548;2023-08-17T09:28:33;25.80;93.70
71084;DHT22;58741;52.672;13.548;2023-08-17T09:31:03;25.80;93.30
71084;DHT22;58741;52.672;13.548;2023-08-17T09:33:30;25.80;93.20
71084;DHT22;58741;52.672;13.548;2023-08-17T09:35:57;25.80;92.80
71084;DHT22;58741;52.672;13.548;2023-08-17T09:38:23;25.70;92.50
71084;DHT22;58741;52.672;13.548;2023-08-17T09:40:49;25.70;93.20
71084;DHT22;58741;52.672;13.548;2023-08-17T09:43:16;25.60;93.20
71084;DHT22;58741;52.672;13.548;2023-08-17T09:45:45;25.50;93.00
71084;DHT22;58741;52.672;13.548;2023-08-17T09:48:19;25.40;92.80
71084;DHT22;58741;52.672;13.548;2023-08-17T09:50:45;25.20;93.00
71084;DHT22;58741;52.672;13.548;2023-08-17T09:53:18;25.20;93.00
71084;DHT22;58741;52.672;13.548;2023-08-17T09:55:45;25.00;93.20
71084;DHT22;58741;52.672;13.548;2023-08-17T09:58:11;24.90;93.30
71084;DHT22;58741;52.672;13.548;2023-08-17T10:00:44;24.80;94.20
71084;DHT22;58741;52.672;13.548;2023-08-17T10:03:13;24.80;95.40
71084;DHT22;58741;52.672;13.548;2023-08-17T10:05:40;24.70;97.10
71084;DHT22;58741;52.672;13.548;2023-08-17T10:08:07;24.60;97.70
71084;DHT22;58741;52.672;13.548;2023-08-17T10:10:35;24.60;98.00
71084;DHT22;58741;52.672;13.548;2023-08-17T10:13:10;24.50;98.20
71084;DHT22;58741;52.672;13.548;2023-08-17T10:16:06;24.40;98.60
71084;DHT22;58741;52.672;13.548;2023-08-17T10:21:27;24.40;99.00
71084;DHT22;58741;52.672;13.548;2023-08-17T10:23:55;24.40;99.10
71084;DHT22;58741;52.672;13.548;2023-08-17T10:26:21;24.40;99.00
71084;DHT22;58741;52.672;13.548;2023-08-17T10:28:48;24.40;98.60
71084;DHT22;58741;52.672;13.548;2023-08-17T10:31:14;24.40;99.10
71084;DHT22;58741;52.672;13.548;2023-08-17T10:33:40;24.40;99.30
71084;DHT22;58741;52.672;13.548;2023-08-17T10:36:09;24.40;98.70
71084;DHT22;58741;52.672;13.548;2023-08-17T10:38:35;24.50;98.90
71084;DHT22;58741;52.672;13.548;2023-08-17T10:41:11;24.50;98.50
71084;DHT22;58741;52.672;13.548;2023-08-17T10:43:53;24.50;98.50
71084;DHT22;58741;52.672;13.548;2023-08-17T10:46:19;24.50;98.50
71084;DHT22;58741;52.672;13.548;2023-08-17T10:48:45;24.50;98.40
71084;DHT22;58741;52.672;13.548;2023-08-17T10:51:11;24.50;97.90
71084;DHT22;58741;52.672;13.548;2023-08-17T10:53:43;24.50;96.90
71084;DHT22;58741;52.672;13.548;2023-08-17T10:56:12;24.40;97.50
71084;DHT22;58741;52.672;13.548;2023-08-17T10:58:38;24.40;97.80
71084;DHT22;58741;52.672;13.548;2023-08-17T11:01:04;24.40;97.50
71084;DHT22;58741;52.672;13.548;2023-08-17T11:03:30;24.40;97.50
71084;DHT22;58741;52.672;13.548;2023-08-17T11:05:57;24.30;97.90
71084;DHT22;58741;52.672;13.548;2023-08-17T11:08:34;24.30;97.70
71084;DHT22;58741;52.672;13.548;2023-08-17T11:11:05;24.30;98.00
71084;DHT22;58741;52.672;13.548;2023-08-17T11:13:42;24.30;98.20
71084;DHT22;58741;52.672;13.548;2023-08-17T11:16:09;24.40;98.30
71084;DHT22;58741;52.672;13.548;2023-08-17T11:18:35;24.40;98.20
71084;DHT22;58741;52.672;13.548;2023-08-17T11:21:08;24.60;99.80
71084;DHT22;58741;52.672;13.548;2023-08-17T11:23:36;24.90;99.50
71084;DHT22;58741;52.672;13.548;2023-08-17T11:26:03;25.10;99.40
71084;DHT22;58741;52.672;13.548;2023-08-17T11:28:33;25.30;98.30
71084;DHT22;58741;52.672;13.548;2023-08-17T11:31:06;25.60;98.10
71084;DHT22;58741;52.672;13.548;2023-08-17T11:33:34;25.80;97.70
71084;DHT22;58741;52.672;13.548;2023-08-17T11:36:04;26.00;97.60
71084;DHT22;58741;52.672;13.548;2023-08-17T11:38:36;26.20;96.90
71084;DHT22;58741;52.672;13.548;2023-08-17T11:41:03;26.40;97.00
71084;DHT22;58741;52.672;13.548;2023-08-17T11:43:30;26.60;97.10
71084;DHT22;58741;52.672;13.548;2023-08-17T11:45:56;26.70;97.00
71084;DHT22;58741;52.672;13.548;2023-08-17T11:48:23;26.90;96.60
71084;DHT22;58741;52.672;13.548;2023-08-17T11:50:49;27.10;96.30
71084;DHT22;58741;52.672;13.548;2023-08-17T11:53:15;27.20;96.20
71084;DHT22;58741;52.672;13.548;2023-08-17T11:55:41;27.40;96.50
71084;DHT22;58741;52.672;13.548;2023-08-17T11:58:07;27.60;95.70
71084;DHT22;58741;52.672;13.548;2023-08-17T12:00:44;27.70;94.70
71084;DHT22;58741;52.672;13.548;2023-08-17T12:03:18;27.80;94.30
71084;DHT22;58741;52.672;13.548;2023-08-17T12:05:44;27.80;94.10
71084;DHT22;58741;52.672;13.548;2023-08-17T12:08:10;27.70;94.00
71084;DHT22;58741;52.672;13.548;2023-08-17T12:10:38;27.70;94.30
71084;DHT22;58741;52.672;13.548;2023-08-17T12:13:04;27.70;94.10
71084;DHT22;58741;52.672;13.548;2023-08-17T12:15:31;27.70;93.40
71084;DHT22;58741;52.672;13.548;2023-08-17T12:17:59;27.70;93.50
71084;DHT22;58741;52.672;13.548;2023-08-17T12:20:25;27.70;93.30
71084;DHT22;58741;52.672;13.548;2023-08-17T12:22:50;27.70;93.60
71084;DHT22;58741;52.672;13.548;2023-08-17T12:25:16;27.70;93.50
71084;DHT22;58741;52.672;13.548;2023-08-17T12:27:47;27.70;94.10
71084;DHT22;58741;52.672;13.548;2023-08-17T12:30:28;27.80;93.50
71084;DHT22;58741;52.672;13.548;2023-08-17T12:32:54;27.80;93.20
71084;DHT22;58741;52.672;13.548;2023-08-17T12:35:19;27.70;93.30
71084;DHT22;58741;52.672;13.548;2023-08-17T12:37:47;27.60;93.20
71084;DHT22;58741;52.672;13.548;2023-08-17T12:40:13;27.60;93.90
71084;DHT22;58741;52.672;13.548;2023-08-17T12:42:39;27.50;93.50
71084;DHT22;58741;52.672;13.548;2023-08-17T12:45:05;27.40;93.60
71084;DHT22;58741;52.672;13.548;2023-08-17T12:47:30;27.30;93.60
71084;DHT22;58741;52.672;13.548;2023-08-17T12:49:56;27.20;93.40
71084;DHT22;58741;52.672;13.548;2023-08-17T12:52:21;27.10;93.90
71084;DHT22;58741;52.672;13.548;2023-08-17T12:54:47;27.00;94.10
71084;DHT22;58741;52.672;13.548;2023-08-17T12:57:12;27.00;94.70
71084;DHT22;58741;52.672;13.548;2023-08-17T12:59:38;27.10;95.00
71084;DHT22;58741;52.672;13.548;2023-08-17T13:02:03;27.30;95.40
71084;DHT22;58741;52.672;13.548;2023-08-17T13:04:29;27.40;95.70
71084;DHT22;58741;52.672;13.548;2023-08-17T13:06:55;27.70;94.90
71084;DHT22;58741;52.672;13.548;2023-08-17T13:09:21;28.00;94.00
71084;DHT22;58741;52.672;13.548;2023-08-17T13:11:46;28.20;94.00
71084;DHT22;58741;52.672;13.548;2023-08-17T13:14:15;28.40;93.40
71084;DHT22;58741;52.672;13.548;2023-08-17T13:16:41;28.40;92.60
71084;DHT22;58741;52.672;13.548;2023-08-17T13:19:07;28.50;92.10
71084;DHT22;58741;52.672;13.548;2023-08-17T13:21:32;28.50;91.70
71084;DHT22;58741;52.672;13.548;2023-08-17T13:23:58;28.50;91.00
71084;DHT22;58741;52.672;13.548;2023-08-17T13:26:24;28.50;90.70
71084;DHT22;58741;52.672;13.548;2023-08-17T13:28:50;28.50;91.60
71084;DHT22;58741;52.672;13.548;2023-08-17T13:31:15;28.50;91.00
71084;DHT22;58741;52.672;13.548;2023-08-17T13:33:41;28.50;91.00
71084;DHT22;58741;52.672;13.548;2023-08-17T13:36:07;28.60;90.60
71084;DHT22;58741;52.672;13.548;2023-08-17T13:38:32;28.60;90.30
71084;DHT22;58741;52.672;13.548;2023-08-17T13:40:58;28.70;91.00
71084;DHT22;58741;52.672;13.548;2023-08-17T13:43:23;28.90;90.80
71084;DHT22;58741;52.672;13.548;2023-08-17T13:45:49;29.10;90.70
71084;DHT22;58741;52.672;13.548;2023-08-17T13:48:14;29.30;87.50
71084;DHT22;58741;52.672;13.548;2023-08-17T13:50:40;29.40;89.30
71084;DHT22;58741;52.672;13.548;2023-08-17T13:53:06;29.60;88.40
71084;DHT22;58741;52.672;13.548;2023-08-17T13:55:31;29.80;87.90
71084;DHT22;58741;52.672;13.548;2023-08-17T13:57:58;29.90;83.80
71084;DHT22;58741;52.672;13.548;2023-08-17T14:00:24;30.10;84.30
71084;DHT22;58741;52.672;13.548;2023-08-17T14:02:49;30.20;84.00
71084;DHT22;58741;52.672;13.548;2023-08-17T14:05:15;30.40;85.00
71084;DHT22;58741;52.672;13.548;2023-08-17T14:07:41;30.50;82.00
71084;DHT22;58741;52.672;13.548;2023-08-17T14:10:07;30.50;81.00
71084;DHT22;58741;52.672;13.548;2023-08-17T14:12:32;30.60;81.50
71084;DHT22;58741;52.672;13.548;2023-08-17T14:14:59;30.60;81.00
71084;DHT22;58741;52.672;13.548;2023-08-17T14:17:25;30.70;82.50
71084;DHT22;58741;52.672;13.548;2023-08-17T14:19:50;30.80;79.50
71084;DHT22;58741;52.672;13.548;2023-08-17T14:22:16;30.90;80.10
71084;DHT22;58741;52.672;13.548;2023-08-17T14:24:41;30.90;78.10
71084;DHT22;58741;52.672;13.548;2023-08-17T14:27:07;31.00;78.00
71084;DHT22;58741;52.672;13.548;2023-08-17T14:29:32;31.10;76.30
71084;DHT22;58741;52.672;13.548;2023-08-17T14:31:58;31.00;75.90
71084;DHT22;58741;52.672;13.548;2023-08-17T14:34:24;31.00;76.80
71084;DHT22;58741;52.672;13.548;2023-08-17T14:36:49;31.10;74.20
71084;DHT22;58741;52.672;13.548;2023-08-17T14:39:15;30.90;73.10
71084;DHT22;58741;52.672;13.548;2023-08-17T14:41:40;30.70;74.40
71084;DHT22;58741;52.672;13.548;2023-08-17T14:44:06;30.60;74.70
71084;DHT22;58741;52.672;13.548;2023-08-17T14:46:31;30.50;76.10
71084;DHT22;58741;52.672;13.548;2023-08-17T14:48:57;30.50;76.80
71084;DHT22;58741;52.672;13.548;2023-08-17T14:51:24;30.40;77.50
71084;DHT22;58741;52.672;13.548;2023-08-17T14:53:49;30.30;77.30
71084;DHT22;58741;52.672;13.548;2023-08-17T14:56:15;30.10;78.00
71084;DHT22;58741;52.672;13.548;2023-08-17T14:58:40;30.00;77.80
71084;DHT22;58741;52.672;13.548;2023-08-17T15:01:06;29.90;79.00
71084;DHT22;58741;52.672;13.548;2023-08-17T15:03:32;29.80;78.40
71084;DHT22;58741;52.672;13.548;2023-08-17T15:05:57;29.70;78.80
71084;DHT22;58741;52.672;13.548;2023-08-17T15:08:23;29.50;79.10
71084;DHT22;58741;52.672;13.548;2023-08-17T15:10:48;29.40;79.10
71084;DHT22;58741;52.672;13.548;2023-08-17T15:13:15;29.30;79.90
71084;DHT22;58741;52.672;13.548;2023-08-17T15:15:40;29.30;81.00
71084;DHT22;58741;52.672;13.548;2023-08-17T15:18:08;29.30;81.50